Aeroporto :
LOGIN :

Iscrizione | Disclaimer

   EN    FR    IT 

 










Sommario :    VFR   VFR Marginale   IFR   IFR Intensivo   IFR Molto Intensivo
Visibilità : 
Base nubi : 
>= 8 km
>= 3000ft
5 / 8 km
1000 / 3000 ft
1500m / 5 km
500 / 1000 ft
800 / 1500m
200 / 500 ft
< 800m
< 200 ft
Simboli :   Temporali  Nebbia  Neve Forte  Precipitazioni Forti  Vento > 20 kt
SIGMETs :   Varie  Temporali  Ghiacco  Turbolenza  Onda orograficha  Ceneri Vulcaniche






- Altitudine del aeroporto : 290 ft
- Codice IATA : OSI


LDOS - Osijek

ULTIMO METAR :
  • 250200Z 29008KT CAVOK 10/07 Q1026

METARs OBSOLETI :
  • 250130Z 29008KT CAVOK 10/08 Q1026
  • 250100Z 28005KT CAVOK 10/08 Q1026
  • 250030Z 29005KT CAVOK 10/08 Q1026
  • 250000Z 28006KT CAVOK 10/08 Q1026
  • 242330Z 28007KT CAVOK 11/08 Q1027

TAF TAF LDOS
Valido dal 25 a 00 ore il 26 a 00 ore UTC


242325Z 2500/2600 32010KT CAVOK TX22/2513Z TN10/2504Z
PROB30
TEMPO 2512/2520 TSRA FEW045CB



MetMap, La meteo Aeronautica in un colpo d'occhio ! - Copyright ORBIFLY Dicembre 2007 - Disclaimer

ORBIFLY MET'MAP TEAM :

Programmazione e sviluppo : Alexandra Zaïnal
Concezione : Baudouin d'Aumeries
Aiuto per la programmazione : Marc-Olivier Méhu
Supporto tecnico e logistico : Manuel Goepfert
Aiuto per la traduzione : Arnaldo La Scala

Contatto : metmap@orbifly.com




FONTI E CREDITI :

   NOAA